sensor_id;sensor_type;location;lat;lon;timestamp;pressure;altitude;pressure_sealevel;temperature;humidity
9139;BME280;4604;48.616;9.548;2023-06-26T00:01:53;96849.16;;;21.75;45.17
9139;BME280;4604;48.616;9.548;2023-06-26T00:04:20;96841.31;;;21.73;45.49
9139;BME280;4604;48.616;9.548;2023-06-26T00:06:46;96849.19;;;21.68;46.36
9139;BME280;4604;48.616;9.548;2023-06-26T00:09:13;96843.41;;;21.65;46.21
9139;BME280;4604;48.616;9.548;2023-06-26T00:11:39;96843.84;;;21.62;46.29
9139;BME280;4604;48.616;9.548;2023-06-26T00:14:06;96850.84;;;21.63;45.93
9139;BME280;4604;48.616;9.548;2023-06-26T00:16:34;96848.56;;;21.66;45.84
9139;BME280;4604;48.616;9.548;2023-06-26T00:19:01;96838.47;;;21.62;45.90
9139;BME280;4604;48.616;9.548;2023-06-26T00:21:27;96849.84;;;21.57;46.27
9139;BME280;4604;48.616;9.548;2023-06-26T00:23:54;96853.75;;;21.54;46.43
9139;BME280;4604;48.616;9.548;2023-06-26T00:26:21;96849.03;;;21.50;46.56
9139;BME280;4604;48.616;9.548;2023-06-26T00:28:49;96846.34;;;21.50;46.64
9139;BME280;4604;48.616;9.548;2023-06-26T00:31:16;96847.19;;;21.44;46.78
9139;BME280;4604;48.616;9.548;2023-06-26T00:33:44;96854.41;;;21.43;46.96
9139;BME280;4604;48.616;9.548;2023-06-26T00:36:11;96852.72;;;21.35;47.47
9139;BME280;4604;48.616;9.548;2023-06-26T00:38:37;96846.97;;;21.25;48.27
9139;BME280;4604;48.616;9.548;2023-06-26T00:41:04;96855.25;;;21.17;48.07
9139;BME280;4604;48.616;9.548;2023-06-26T00:43:37;96851.53;;;21.11;48.31
9139;BME280;4604;48.616;9.548;2023-06-26T00:46:04;96857.31;;;21.08;48.68
9139;BME280;4604;48.616;9.548;2023-06-26T00:48:31;96860.84;;;21.02;49.24
9139;BME280;4604;48.616;9.548;2023-06-26T00:50:59;96853.78;;;20.94;49.54
9139;BME280;4604;48.616;9.548;2023-06-26T00:53:27;96858.56;;;20.86;49.81
9139;BME280;4604;48.616;9.548;2023-06-26T00:55:55;96857.28;;;20.75;50.71
9139;BME280;4604;48.616;9.548;2023-06-26T00:58:23;96856.50;;;20.68;50.86
9139;BME280;4604;48.616;9.548;2023-06-26T01:00:50;96851.53;;;20.58;51.35
9139;BME280;4604;48.616;9.548;2023-06-26T01:03:17;96847.97;;;20.51;51.76
9139;BME280;4604;48.616;9.548;2023-06-26T01:05:44;96853.34;;;20.51;51.80
9139;BME280;4604;48.616;9.548;2023-06-26T01:08:16;96845.28;;;20.44;51.80
9139;BME280;4604;48.616;9.548;2023-06-26T01:10:44;96846.72;;;20.40;52.21
9139;BME280;4604;48.616;9.548;2023-06-26T01:13:12;96847.91;;;20.31;52.52
9139;BME280;4604;48.616;9.548;2023-06-26T01:15:39;96836.34;;;20.24;53.09
9139;BME280;4604;48.616;9.548;2023-06-26T01:18:06;96839.66;;;20.13;53.56
9139;BME280;4604;48.616;9.548;2023-06-26T01:20:36;96838.38;;;20.08;54.39
9139;BME280;4604;48.616;9.548;2023-06-26T01:23:07;96831.16;;;20.02;54.95
9139;BME280;4604;48.616;9.548;2023-06-26T01:25:55;96833.22;;;20.00;54.64
9139;BME280;4604;48.616;9.548;2023-06-26T01:28:25;96830.94;;;19.97;54.43
9139;BME280;4604;48.616;9.548;2023-06-26T01:30:53;96828.88;;;19.99;54.12
9139;BME280;4604;48.616;9.548;2023-06-26T01:33:21;96827.41;;;19.97;54.09
9139;BME280;4604;48.616;9.548;2023-06-26T01:35:48;96821.25;;;19.96;53.94
9139;BME280;4604;48.616;9.548;2023-06-26T01:38:16;96823.28;;;19.94;54.23
9139;BME280;4604;48.616;9.548;2023-06-26T01:40:44;96821.84;;;19.85;54.73
9139;BME280;4604;48.616;9.548;2023-06-26T01:43:15;96815.00;;;19.82;54.99
9139;BME280;4604;48.616;9.548;2023-06-26T01:45:48;96822.66;;;19.85;54.65
9139;BME280;4604;48.616;9.548;2023-06-26T01:48:20;96816.88;;;19.88;54.38
9139;BME280;4604;48.616;9.548;2023-06-26T01:50:51;96806.97;;;19.76;54.46
9139;BME280;4604;48.616;9.548;2023-06-26T01:53:21;96801.75;;;19.67;54.25
9139;BME280;4604;48.616;9.548;2023-06-26T01:55:51;96809.59;;;19.69;54.17
9139;BME280;4604;48.616;9.548;2023-06-26T01:58:21;96815.19;;;19.74;53.07
9139;BME280;4604;48.616;9.548;2023-06-26T02:00:50;96817.06;;;19.80;52.68
9139;BME280;4604;48.616;9.548;2023-06-26T02:03:17;96808.81;;;19.82;52.76
9139;BME280;4604;48.616;9.548;2023-06-26T02:05:43;96801.41;;;19.84;53.16
9139;BME280;4604;48.616;9.548;2023-06-26T02:08:13;96809.41;;;19.77;53.15
9139;BME280;4604;48.616;9.548;2023-06-26T02:10:40;96811.09;;;19.78;53.76
9139;BME280;4604;48.616;9.548;2023-06-26T02:13:07;96814.13;;;19.69;54.26
9139;BME280;4604;48.616;9.548;2023-06-26T02:15:33;96805.84;;;19.63;54.39
9139;BME280;4604;48.616;9.548;2023-06-26T02:18:02;96810.34;;;19.63;54.29
9139;BME280;4604;48.616;9.548;2023-06-26T02:20:28;96806.63;;;19.57;54.29
9139;BME280;4604;48.616;9.548;2023-06-26T02:22:55;96802.50;;;19.55;54.39
9139;BME280;4604;48.616;9.548;2023-06-26T02:25:21;96808.25;;;19.52;54.46
9139;BME280;4604;48.616;9.548;2023-06-26T02:27:48;96806.22;;;19.54;54.29
9139;BME280;4604;48.616;9.548;2023-06-26T02:30:15;96812.97;;;19.50;54.66
9139;BME280;4604;48.616;9.548;2023-06-26T02:32:41;96810.13;;;19.51;54.09
9139;BME280;4604;48.616;9.548;2023-06-26T02:35:09;96809.28;;;19.51;53.94
9139;BME280;4604;48.616;9.548;2023-06-26T02:37:36;96813.63;;;19.52;54.22
9139;BME280;4604;48.616;9.548;2023-06-26T02:40:03;96806.59;;;19.51;54.34
9139;BME280;4604;48.616;9.548;2023-06-26T02:42:31;96817.53;;;19.49;54.67
9139;BME280;4604;48.616;9.548;2023-06-26T02:44:57;96822.44;;;19.45;55.76
9139;BME280;4604;48.616;9.548;2023-06-26T02:47:24;96819.91;;;19.37;56.58
9139;BME280;4604;48.616;9.548;2023-06-26T02:49:50;96819.28;;;19.35;57.38
9139;BME280;4604;48.616;9.548;2023-06-26T02:52:18;96823.59;;;19.30;58.26
9139;BME280;4604;48.616;9.548;2023-06-26T02:54:45;96810.56;;;19.20;58.66
9139;BME280;4604;48.616;9.548;2023-06-26T02:57:12;96813.97;;;19.07;59.65
9139;BME280;4604;48.616;9.548;2023-06-26T02:59:40;96820.72;;;19.03;59.60
9139;BME280;4604;48.616;9.548;2023-06-26T03:02:07;96813.09;;;19.00;60.08
9139;BME280;4604;48.616;9.548;2023-06-26T03:04:34;96812.88;;;18.95;60.58
9139;BME280;4604;48.616;9.548;2023-06-26T03:07:01;96816.13;;;18.90;60.96
9139;BME280;4604;48.616;9.548;2023-06-26T03:09:29;96814.22;;;18.84;61.78
9139;BME280;4604;48.616;9.548;2023-06-26T03:11:56;96819.44;;;18.71;62.63
9139;BME280;4604;48.616;9.548;2023-06-26T03:14:22;96814.66;;;18.66;62.38
9139;BME280;4604;48.616;9.548;2023-06-26T03:16:49;96815.06;;;18.63;62.57
9139;BME280;4604;48.616;9.548;2023-06-26T03:19:18;96817.72;;;18.63;62.67
9139;BME280;4604;48.616;9.548;2023-06-26T03:21:44;96816.25;;;18.60;62.80
9139;BME280;4604;48.616;9.548;2023-06-26T03:24:11;96816.00;;;18.55;63.12
9139;BME280;4604;48.616;9.548;2023-06-26T03:26:39;96816.13;;;18.47;63.64
9139;BME280;4604;48.616;9.548;2023-06-26T03:29:05;96825.75;;;18.42;63.63
9139;BME280;4604;48.616;9.548;2023-06-26T03:31:32;96827.00;;;18.46;63.35
9139;BME280;4604;48.616;9.548;2023-06-26T03:33:59;96829.50;;;18.47;63.81
9139;BME280;4604;48.616;9.548;2023-06-26T03:36:25;96826.13;;;18.38;64.64
9139;BME280;4604;48.616;9.548;2023-06-26T03:38:52;96824.28;;;18.39;64.89
9139;BME280;4604;48.616;9.548;2023-06-26T03:41:22;96826.72;;;18.34;65.51
9139;BME280;4604;48.616;9.548;2023-06-26T03:43:50;96824.97;;;18.26;65.92
9139;BME280;4604;48.616;9.548;2023-06-26T03:46:17;96828.25;;;18.22;66.71
9139;BME280;4604;48.616;9.548;2023-06-26T03:48:43;96823.06;;;18.20;67.08
9139;BME280;4604;48.616;9.548;2023-06-26T03:51:10;96837.00;;;18.15;67.53
9139;BME280;4604;48.616;9.548;2023-06-26T03:53:36;96828.97;;;18.15;67.92
9139;BME280;4604;48.616;9.548;2023-06-26T03:56:03;96831.25;;;18.18;68.33
9139;BME280;4604;48.616;9.548;2023-06-26T03:58:30;96836.56;;;18.12;68.46
9139;BME280;4604;48.616;9.548;2023-06-26T04:00:58;96834.44;;;18.07;68.71
9139;BME280;4604;48.616;9.548;2023-06-26T04:03:25;96843.09;;;18.09;68.74
9139;BME280;4604;48.616;9.548;2023-06-26T04:05:52;96846.78;;;18.08;69.32
9139;BME280;4604;48.616;9.548;2023-06-26T04:08:19;96848.44;;;18.09;70.01
9139;BME280;4604;48.616;9.548;2023-06-26T04:10:46;96845.78;;;18.09;70.05
9139;BME280;4604;48.616;9.548;2023-06-26T04:13:13;96850.91;;;18.11;70.27
9139;BME280;4604;48.616;9.548;2023-06-26T04:15:40;96845.19;;;18.14;70.29
9139;BME280;4604;48.616;9.548;2023-06-26T04:18:08;96855.59;;;18.09;70.47
9139;BME280;4604;48.616;9.548;2023-06-26T04:20:39;96846.94;;;18.07;70.40
9139;BME280;4604;48.616;9.548;2023-06-26T04:23:05;96846.78;;;18.08;70.88
9139;BME280;4604;48.616;9.548;2023-06-26T04:25:32;96853.41;;;18.12;71.62
9139;BME280;4604;48.616;9.548;2023-06-26T04:27:59;96853.19;;;18.14;71.76
9139;BME280;4604;48.616;9.548;2023-06-26T04:30:25;96857.16;;;18.18;71.87
9139;BME280;4604;48.616;9.548;2023-06-26T04:32:52;96853.03;;;18.15;72.10
9139;BME280;4604;48.616;9.548;2023-06-26T04:35:20;96847.75;;;18.22;71.69
9139;BME280;4604;48.616;9.548;2023-06-26T04:37:46;96848.69;;;18.36;70.89
9139;BME280;4604;48.616;9.548;2023-06-26T04:40:13;96845.94;;;18.44;70.56
9139;BME280;4604;48.616;9.548;2023-06-26T04:42:40;96843.91;;;18.46;70.71
9139;BME280;4604;48.616;9.548;2023-06-26T04:45:07;96846.44;;;18.54;70.68
9139;BME280;4604;48.616;9.548;2023-06-26T04:47:34;96840.31;;;18.60;70.46
9139;BME280;4604;48.616;9.548;2023-06-26T04:50:00;96841.00;;;18.69;70.23
9139;BME280;4604;48.616;9.548;2023-06-26T04:52:28;96844.19;;;18.79;70.22
9139;BME280;4604;48.616;9.548;2023-06-26T04:54:55;96834.84;;;18.90;70.32
9139;BME280;4604;48.616;9.548;2023-06-26T04:57:21;96833.66;;;18.99;70.30
9139;BME280;4604;48.616;9.548;2023-06-26T04:59:48;96824.91;;;19.12;69.82
9139;BME280;4604;48.616;9.548;2023-06-26T05:02:15;96835.94;;;19.31;68.89
9139;BME280;4604;48.616;9.548;2023-06-26T05:04:41;96830.63;;;19.37;68.73
9139;BME280;4604;48.616;9.548;2023-06-26T05:07:08;96829.22;;;19.48;67.84
9139;BME280;4604;48.616;9.548;2023-06-26T05:09:36;96823.97;;;19.61;67.30
9139;BME280;4604;48.616;9.548;2023-06-26T05:12:03;96832.69;;;19.77;66.66
9139;BME280;4604;48.616;9.548;2023-06-26T05:14:30;96838.94;;;19.91;65.47
9139;BME280;4604;48.616;9.548;2023-06-26T05:16:56;96835.44;;;19.90;65.55
9139;BME280;4604;48.616;9.548;2023-06-26T05:19:23;96833.63;;;20.04;65.67
9139;BME280;4604;48.616;9.548;2023-06-26T05:21:50;96831.78;;;20.11;65.56
9139;BME280;4604;48.616;9.548;2023-06-26T05:24:19;96838.44;;;20.28;64.60
9139;BME280;4604;48.616;9.548;2023-06-26T05:26:48;96836.81;;;20.41;65.33
9139;BME280;4604;48.616;9.548;2023-06-26T05:29:15;96838.13;;;20.58;65.13
9139;BME280;4604;48.616;9.548;2023-06-26T05:31:44;96837.09;;;20.66;65.25
9139;BME280;4604;48.616;9.548;2023-06-26T05:34:13;96842.44;;;20.79;64.72
9139;BME280;4604;48.616;9.548;2023-06-26T05:36:41;96836.06;;;20.87;64.30
9139;BME280;4604;48.616;9.548;2023-06-26T05:39:08;96832.97;;;20.97;63.78
9139;BME280;4604;48.616;9.548;2023-06-26T05:41:35;96834.19;;;21.14;62.98
9139;BME280;4604;48.616;9.548;2023-06-26T05:44:03;96830.06;;;21.18;63.34
9139;BME280;4604;48.616;9.548;2023-06-26T05:46:30;96829.44;;;21.29;63.26
9139;BME280;4604;48.616;9.548;2023-06-26T05:48:57;96827.56;;;21.43;63.55
9139;BME280;4604;48.616;9.548;2023-06-26T05:51:24;96840.13;;;21.56;63.38
9139;BME280;4604;48.616;9.548;2023-06-26T05:53:51;96837.00;;;21.66;63.08
9139;BME280;4604;48.616;9.548;2023-06-26T05:56:18;96833.44;;;21.78;62.31
9139;BME280;4604;48.616;9.548;2023-06-26T05:58:45;96836.06;;;21.92;61.89
9139;BME280;4604;48.616;9.548;2023-06-26T06:01:13;96842.66;;;22.02;60.71
9139;BME280;4604;48.616;9.548;2023-06-26T06:03:40;96835.75;;;22.13;60.67
9139;BME280;4604;48.616;9.548;2023-06-26T06:06:06;96839.44;;;22.26;60.06
9139;BME280;4604;48.616;9.548;2023-06-26T06:08:33;96836.31;;;22.29;60.19
9139;BME280;4604;48.616;9.548;2023-06-26T06:11:00;96839.59;;;22.37;59.67
9139;BME280;4604;48.616;9.548;2023-06-26T06:13:27;96843.44;;;22.48;59.74
9139;BME280;4604;48.616;9.548;2023-06-26T06:15:53;96841.13;;;22.58;59.02
9139;BME280;4604;48.616;9.548;2023-06-26T06:18:22;96845.47;;;22.59;57.09
9139;BME280;4604;48.616;9.548;2023-06-26T06:20:48;96856.19;;;22.66;57.65
9139;BME280;4604;48.616;9.548;2023-06-26T06:23:15;96854.28;;;22.73;57.96
9139;BME280;4604;48.616;9.548;2023-06-26T06:25:41;96853.09;;;22.62;58.68
9139;BME280;4604;48.616;9.548;2023-06-26T06:28:08;96859.19;;;22.76;57.46
9139;BME280;4604;48.616;9.548;2023-06-26T06:30:35;96864.38;;;22.78;57.54
9139;BME280;4604;48.616;9.548;2023-06-26T06:33:01;96856.63;;;22.88;56.25
9139;BME280;4604;48.616;9.548;2023-06-26T06:35:29;96857.00;;;22.98;56.68
9139;BME280;4604;48.616;9.548;2023-06-26T06:37:56;96852.38;;;23.05;57.21
9139;BME280;4604;48.616;9.548;2023-06-26T06:40:23;96853.63;;;23.28;55.89
9139;BME280;4604;48.616;9.548;2023-06-26T06:42:51;96846.31;;;23.35;55.90
9139;BME280;4604;48.616;9.548;2023-06-26T06:45:17;96850.47;;;23.31;56.23
9139;BME280;4604;48.616;9.548;2023-06-26T06:47:44;96855.25;;;23.54;57.07
9139;BME280;4604;48.616;9.548;2023-06-26T06:50:11;96848.56;;;23.57;56.52
9139;BME280;4604;48.616;9.548;2023-06-26T06:52:39;96847.78;;;23.75;55.45
9139;BME280;4604;48.616;9.548;2023-06-26T06:55:07;96849.28;;;23.89;54.77
9139;BME280;4604;48.616;9.548;2023-06-26T06:57:35;96853.25;;;24.05;53.99
9139;BME280;4604;48.616;9.548;2023-06-26T07:00:04;96845.34;;;24.22;53.70
9139;BME280;4604;48.616;9.548;2023-06-26T07:02:33;96848.81;;;24.41;52.81
9139;BME280;4604;48.616;9.548;2023-06-26T07:05:00;96853.59;;;24.57;52.47
9139;BME280;4604;48.616;9.548;2023-06-26T07:07:29;96846.59;;;24.68;51.66
9139;BME280;4604;48.616;9.548;2023-06-26T07:09:58;96855.19;;;24.88;50.62
9139;BME280;4604;48.616;9.548;2023-06-26T07:12:25;96847.84;;;25.07;48.78
9139;BME280;4604;48.616;9.548;2023-06-26T07:14:51;96852.69;;;25.17;48.21
9139;BME280;4604;48.616;9.548;2023-06-26T07:17:19;96853.25;;;25.31;48.02
9139;BME280;4604;48.616;9.548;2023-06-26T07:19:46;96851.38;;;25.43;47.25
9139;BME280;4604;48.616;9.548;2023-06-26T07:22:12;96856.56;;;25.45;46.69
9139;BME280;4604;48.616;9.548;2023-06-26T07:24:39;96856.91;;;25.48;46.92
9139;BME280;4604;48.616;9.548;2023-06-26T07:27:07;96863.97;;;25.61;47.26
9139;BME280;4604;48.616;9.548;2023-06-26T07:29:34;96853.13;;;25.73;45.83
9139;BME280;4604;48.616;9.548;2023-06-26T07:32:00;96853.91;;;25.97;46.16
9139;BME280;4604;48.616;9.548;2023-06-26T07:34:27;96857.09;;;25.82;45.71
9139;BME280;4604;48.616;9.548;2023-06-26T07:36:54;96854.97;;;25.84;46.11
9139;BME280;4604;48.616;9.548;2023-06-26T07:39:20;96855.09;;;26.01;47.03
9139;BME280;4604;48.616;9.548;2023-06-26T07:41:47;96856.91;;;26.24;45.96
9139;BME280;4604;48.616;9.548;2023-06-26T07:44:15;96855.22;;;26.35;44.48
9139;BME280;4604;48.616;9.548;2023-06-26T07:46:42;96860.31;;;26.48;42.93
9139;BME280;4604;48.616;9.548;2023-06-26T07:49:09;96863.09;;;26.65;42.39
9139;BME280;4604;48.616;9.548;2023-06-26T07:51:36;96863.09;;;26.65;41.44
9139;BME280;4604;48.616;9.548;2023-06-26T07:54:03;96863.63;;;26.79;42.07
9139;BME280;4604;48.616;9.548;2023-06-26T07:56:29;96864.16;;;26.93;41.30
9139;BME280;4604;48.616;9.548;2023-06-26T07:58:56;96870.28;;;26.88;39.23
9139;BME280;4604;48.616;9.548;2023-06-26T08:01:27;96858.72;;;26.93;39.16
9139;BME280;4604;48.616;9.548;2023-06-26T08:03:53;96866.88;;;27.09;39.20
9139;BME280;4604;48.616;9.548;2023-06-26T08:06:20;96877.31;;;27.35;38.94
9139;BME280;4604;48.616;9.548;2023-06-26T08:08:46;96870.41;;;27.44;38.54
9139;BME280;4604;48.616;9.548;2023-06-26T08:11:13;96872.47;;;27.37;38.74
9139;BME280;4604;48.616;9.548;2023-06-26T08:13:40;96868.41;;;27.56;38.83
9139;BME280;4604;48.616;9.548;2023-06-26T08:16:07;96869.16;;;27.51;38.58
9139;BME280;4604;48.616;9.548;2023-06-26T08:18:35;96871.56;;;27.70;38.75
9139;BME280;4604;48.616;9.548;2023-06-26T08:21:01;96870.06;;;27.40;38.70
9139;BME280;4604;48.616;9.548;2023-06-26T08:23:28;96864.03;;;27.55;38.42
9139;BME280;4604;48.616;9.548;2023-06-26T08:25:55;96876.44;;;27.68;38.59
9139;BME280;4604;48.616;9.548;2023-06-26T08:28:24;96863.50;;;27.92;38.18
9139;BME280;4604;48.616;9.548;2023-06-26T08:30:50;96863.19;;;27.88;38.19
9139;BME280;4604;48.616;9.548;2023-06-26T08:33:17;96867.59;;;27.94;38.57
9139;BME280;4604;48.616;9.548;2023-06-26T08:35:46;96857.69;;;27.83;37.91
9139;BME280;4604;48.616;9.548;2023-06-26T08:38:12;96860.34;;;28.00;38.39
9139;BME280;4604;48.616;9.548;2023-06-26T08:40:39;96866.19;;;28.14;38.51
9139;BME280;4604;48.616;9.548;2023-06-26T08:43:06;96858.06;;;28.14;37.20
9139;BME280;4604;48.616;9.548;2023-06-26T08:45:33;96864.16;;;28.26;36.78
9139;BME280;4604;48.616;9.548;2023-06-26T08:48:00;96862.38;;;28.10;36.56
9139;BME280;4604;48.616;9.548;2023-06-26T08:50:30;96863.56;;;28.19;37.19
9139;BME280;4604;48.616;9.548;2023-06-26T08:53:05;96874.03;;;28.54;37.78
9139;BME280;4604;48.616;9.548;2023-06-26T08:55:41;96861.38;;;28.65;36.17
9139;BME280;4604;48.616;9.548;2023-06-26T08:58:08;96861.88;;;28.89;36.58
9139;BME280;4604;48.616;9.548;2023-06-26T09:00:34;96856.91;;;28.81;36.40
9139;BME280;4604;48.616;9.548;2023-06-26T09:03:03;96860.84;;;28.95;36.52
9139;BME280;4604;48.616;9.548;2023-06-26T09:05:30;96852.13;;;29.26;35.97
9139;BME280;4604;48.616;9.548;2023-06-26T09:07:57;96857.84;;;28.97;35.62
9139;BME280;4604;48.616;9.548;2023-06-26T09:10:25;96849.56;;;28.81;35.87
9139;BME280;4604;48.616;9.548;2023-06-26T09:12:55;96854.78;;;29.15;35.89
9139;BME280;4604;48.616;9.548;2023-06-26T09:15:21;96856.66;;;29.10;36.33
9139;BME280;4604;48.616;9.548;2023-06-26T09:17:48;96853.94;;;28.83;36.40
9139;BME280;4604;48.616;9.548;2023-06-26T09:20:15;96846.34;;;28.85;36.50
9139;BME280;4604;48.616;9.548;2023-06-26T09:22:43;96852.59;;;29.12;36.54
9139;BME280;4604;48.616;9.548;2023-06-26T09:25:13;96842.81;;;29.16;35.60
9139;BME280;4604;48.616;9.548;2023-06-26T09:27:43;96846.63;;;29.15;35.96
9139;BME280;4604;48.616;9.548;2023-06-26T09:30:11;96840.59;;;29.08;36.03
9139;BME280;4604;48.616;9.548;2023-06-26T09:32:38;96838.06;;;29.34;35.53
9139;BME280;4604;48.616;9.548;2023-06-26T09:35:05;96834.88;;;29.47;35.42
9139;BME280;4604;48.616;9.548;2023-06-26T09:37:32;96831.00;;;29.75;35.79
9139;BME280;4604;48.616;9.548;2023-06-26T09:39:59;96834.91;;;30.00;35.88
9139;BME280;4604;48.616;9.548;2023-06-26T09:42:26;96845.81;;;30.00;35.15
9139;BME280;4604;48.616;9.548;2023-06-26T09:44:54;96833.06;;;30.21;34.58
9139;BME280;4604;48.616;9.548;2023-06-26T09:47:21;96843.34;;;30.03;34.31
9139;BME280;4604;48.616;9.548;2023-06-26T09:49:47;96838.16;;;29.97;34.82
9139;BME280;4604;48.616;9.548;2023-06-26T09:52:18;96838.03;;;29.66;34.73
9139;BME280;4604;48.616;9.548;2023-06-26T09:54:45;96830.88;;;30.18;34.50
9139;BME280;4604;48.616;9.548;2023-06-26T09:57:15;96829.72;;;29.93;34.52
9139;BME280;4604;48.616;9.548;2023-06-26T09:59:43;96821.06;;;30.12;35.48
9139;BME280;4604;48.616;9.548;2023-06-26T10:02:11;96826.38;;;30.39;34.26
9139;BME280;4604;48.616;9.548;2023-06-26T10:04:38;96819.56;;;30.52;33.94
9139;BME280;4604;48.616;9.548;2023-06-26T10:07:06;96816.84;;;30.62;34.00
9139;BME280;4604;48.616;9.548;2023-06-26T10:09:35;96820.69;;;30.66;34.04
9139;BME280;4604;48.616;9.548;2023-06-26T10:12:07;96813.84;;;30.53;34.68
9139;BME280;4604;48.616;9.548;2023-06-26T10:14:36;96828.81;;;30.40;34.86
9139;BME280;4604;48.616;9.548;2023-06-26T10:17:10;96817.38;;;30.43;33.88
9139;BME280;4604;48.616;9.548;2023-06-26T10:19:39;96813.56;;;30.49;34.26
9139;BME280;4604;48.616;9.548;2023-06-26T10:22:09;96820.06;;;30.28;34.95
9139;BME280;4604;48.616;9.548;2023-06-26T10:24:35;96814.53;;;30.07;34.82
9139;BME280;4604;48.616;9.548;2023-06-26T10:27:07;96823.78;;;30.12;35.51
9139;BME280;4604;48.616;9.548;2023-06-26T10:29:35;96824.88;;;30.05;35.90
9139;BME280;4604;48.616;9.548;2023-06-26T10:32:04;96824.88;;;30.16;35.02
9139;BME280;4604;48.616;9.548;2023-06-26T10:34:32;96816.94;;;30.04;35.59
9139;BME280;4604;48.616;9.548;2023-06-26T10:37:02;96821.28;;;29.95;35.91
9139;BME280;4604;48.616;9.548;2023-06-26T10:39:45;96821.59;;;30.03;35.16
9139;BME280;4604;48.616;9.548;2023-06-26T10:42:13;96827.53;;;29.90;35.03
9139;BME280;4604;48.616;9.548;2023-06-26T10:44:40;96823.72;;;29.96;35.52
9139;BME280;4604;48.616;9.548;2023-06-26T10:47:09;96819.84;;;29.77;36.56
9139;BME280;4604;48.616;9.548;2023-06-26T10:49:36;96819.84;;;29.77;35.88
9139;BME280;4604;48.616;9.548;2023-06-26T10:52:09;96820.16;;;29.80;35.66
9139;BME280;4604;48.616;9.548;2023-06-26T10:54:38;96817.19;;;29.92;35.96
9139;BME280;4604;48.616;9.548;2023-06-26T10:57:07;96824.44;;;29.71;36.16
9139;BME280;4604;48.616;9.548;2023-06-26T10:59:33;96815.34;;;29.55;35.37
9139;BME280;4604;48.616;9.548;2023-06-26T11:02:01;96817.28;;;29.65;36.25
9139;BME280;4604;48.616;9.548;2023-06-26T11:04:37;96809.09;;;29.55;36.34
9139;BME280;4604;48.616;9.548;2023-06-26T11:07:19;96803.97;;;29.63;36.16
9139;BME280;4604;48.616;9.548;2023-06-26T11:09:54;96823.19;;;29.47;36.07
9139;BME280;4604;48.616;9.548;2023-06-26T11:12:38;96825.97;;;29.14;35.87
9139;BME280;4604;48.616;9.548;2023-06-26T11:15:08;96826.94;;;29.03;36.14
9139;BME280;4604;48.616;9.548;2023-06-26T11:17:35;96819.22;;;28.90;36.60
9139;BME280;4604;48.616;9.548;2023-06-26T11:20:03;96825.81;;;28.99;37.01
9139;BME280;4604;48.616;9.548;2023-06-26T11:22:34;96833.03;;;28.83;37.48
9139;BME280;4604;48.616;9.548;2023-06-26T11:25:02;96834.59;;;28.79;37.77
9139;BME280;4604;48.616;9.548;2023-06-26T11:27:31;96827.66;;;28.93;37.79
9139;BME280;4604;48.616;9.548;2023-06-26T11:29:58;96837.38;;;28.84;37.90
9139;BME280;4604;48.616;9.548;2023-06-26T11:32:26;96842.75;;;28.79;38.27
9139;BME280;4604;48.616;9.548;2023-06-26T11:34:53;96840.97;;;28.63;38.57
9139;BME280;4604;48.616;9.548;2023-06-26T11:37:21;96846.81;;;28.49;39.58
9139;BME280;4604;48.616;9.548;2023-06-26T11:39:49;96855.78;;;28.50;39.79
9139;BME280;4604;48.616;9.548;2023-06-26T11:42:16;96854.56;;;28.41;40.20
9139;BME280;4604;48.616;9.548;2023-06-26T11:44:43;96868.47;;;28.44;40.23
9139;BME280;4604;48.616;9.548;2023-06-26T11:47:14;96860.97;;;28.51;40.32
9139;BME280;4604;48.616;9.548;2023-06-26T11:49:42;96863.97;;;28.55;40.43
9139;BME280;4604;48.616;9.548;2023-06-26T11:52:11;96855.28;;;28.80;40.64
9139;BME280;4604;48.616;9.548;2023-06-26T11:54:37;96853.69;;;29.16;39.71
9139;BME280;4604;48.616;9.548;2023-06-26T11:57:06;96851.69;;;29.39;39.55
9139;BME280;4604;48.616;9.548;2023-06-26T11:59:36;96850.22;;;29.26;39.84
9139;BME280;4604;48.616;9.548;2023-06-26T12:02:07;96842.94;;;29.32;39.90
9139;BME280;4604;48.616;9.548;2023-06-26T12:04:36;96837.63;;;29.52;39.61
9139;BME280;4604;48.616;9.548;2023-06-26T12:07:05;96841.41;;;29.94;38.74
9139;BME280;4604;48.616;9.548;2023-06-26T12:09:34;96836.88;;;30.10;38.59
9139;BME280;4604;48.616;9.548;2023-06-26T12:12:06;96833.03;;;30.05;37.57
9139;BME280;4604;48.616;9.548;2023-06-26T12:14:34;96829.94;;;29.86;38.25
9139;BME280;4604;48.616;9.548;2023-06-26T12:17:04;96831.28;;;29.84;38.29
9139;BME280;4604;48.616;9.548;2023-06-26T12:19:34;96835.94;;;29.83;37.69
9139;BME280;4604;48.616;9.548;2023-06-26T12:22:06;96849.66;;;29.61;38.40
9139;BME280;4604;48.616;9.548;2023-06-26T12:24:34;96839.84;;;29.60;38.46
9139;BME280;4604;48.616;9.548;2023-06-26T12:27:02;96842.50;;;29.50;37.81
9139;BME280;4604;48.616;9.548;2023-06-26T12:29:32;96831.34;;;29.47;37.67
9139;BME280;4604;48.616;9.548;2023-06-26T12:31:59;96834.97;;;29.62;37.42
9139;BME280;4604;48.616;9.548;2023-06-26T12:34:27;96842.25;;;29.52;38.58
9139;BME280;4604;48.616;9.548;2023-06-26T12:37:00;96834.50;;;29.71;38.56
9139;BME280;4604;48.616;9.548;2023-06-26T12:39:27;96845.44;;;29.81;38.88
9139;BME280;4604;48.616;9.548;2023-06-26T12:41:56;96839.41;;;29.69;38.26
9139;BME280;4604;48.616;9.548;2023-06-26T12:44:25;96858.25;;;29.48;36.97
9139;BME280;4604;48.616;9.548;2023-06-26T12:46:56;96844.78;;;29.26;38.15
9139;BME280;4604;48.616;9.548;2023-06-26T12:49:30;96842.31;;;29.62;37.53
9139;BME280;4604;48.616;9.548;2023-06-26T12:51:57;96849.44;;;30.26;37.12
9139;BME280;4604;48.616;9.548;2023-06-26T12:54:24;96836.41;;;30.38;36.05
9139;BME280;4604;48.616;9.548;2023-06-26T12:56:51;96836.22;;;30.65;35.66
9139;BME280;4604;48.616;9.548;2023-06-26T12:59:17;96830.78;;;30.76;35.36
9139;BME280;4604;48.616;9.548;2023-06-26T13:01:44;96825.91;;;30.83;35.00
9139;BME280;4604;48.616;9.548;2023-06-26T13:04:12;96830.50;;;30.77;34.75
9139;BME280;4604;48.616;9.548;2023-06-26T13:06:38;96821.25;;;30.68;34.88
9139;BME280;4604;48.616;9.548;2023-06-26T13:09:05;96823.13;;;30.67;34.81
9139;BME280;4604;48.616;9.548;2023-06-26T13:11:32;96824.22;;;30.56;35.20
9139;BME280;4604;48.616;9.548;2023-06-26T13:14:00;96824.94;;;30.26;36.14
9139;BME280;4604;48.616;9.548;2023-06-26T13:16:27;96810.53;;;30.31;36.94
9139;BME280;4604;48.616;9.548;2023-06-26T13:18:54;96812.22;;;30.47;36.43
9139;BME280;4604;48.616;9.548;2023-06-26T13:21:22;96818.22;;;30.59;36.76
9139;BME280;4604;48.616;9.548;2023-06-26T13:23:49;96814.91;;;30.37;36.22
9139;BME280;4604;48.616;9.548;2023-06-26T13:26:15;96815.19;;;30.45;36.88